<?xml version="1.0" encoding="UTF-8" standalone="no" ?>
<gpx xmlns="http://www.topografix.com/GPX/1/1" xmlns:xsi="http://www.w3.org/2001/XMLSchema-instance" xsi:schemaLocation="http://www.topografix.com/GPX/1/1 http://www.topografix.com/GPX/1/1/gpx.xsd" version="1.1" creator="VisuGPX - https://www.visugpx.com">
  <metadata>
    <name>Gorges de la Véroncle au départ de Joucas</name>
  </metadata>
  <wpt lat="43.92667" lon="5.2507">
    <ele>271</ele>
    <name><![CDATA[Départ de Joucas]]></name>
  </wpt>
  <wpt lat="43.92628" lon="5.24576">
    <ele>288</ele>
    <name><![CDATA[La Basse Auvières. Carrefour de la boucle]]></name>
  </wpt>
  <wpt lat="43.92491" lon="5.23722">
    <ele>312</ele>
    <name><![CDATA[Baume Brune]]></name>
  </wpt>
  <wpt lat="43.91573" lon="5.22848">
    <ele>203</ele>
    <name><![CDATA[Les Grailles]]></name>
  </wpt>
  <wpt lat="43.92474" lon="5.22225">
    <ele>293</ele>
    <name><![CDATA[Ravin de Vézaule]]></name>
  </wpt>
  <wpt lat="43.93329" lon="5.22142">
    <ele>363</ele>
    <name><![CDATA[Ruines Moulin Jean de Mare]]></name>
  </wpt>
  <wpt lat="43.93433" lon="5.22139">
    <ele>376</ele>
    <name><![CDATA[Intersection pour le retour]]></name>
  </wpt>
  <wpt lat="43.93622" lon="5.22586">
    <ele>474</ele>
    <name><![CDATA[Lauzière]]></name>
  </wpt>
  <wpt lat="43.93304" lon="5.22996">
    <ele>430</ele>
    <name><![CDATA[Les Trois Évêchés]]></name>
  </wpt>
  <wpt lat="43.92763" lon="5.23714">
    <ele>334</ele>
    <name><![CDATA[Les Auvières]]></name>
  </wpt>
  <wpt lat="43.92667" lon="5.2507">
    <ele>271</ele>
    <name><![CDATA[Arrivée au point de départ]]></name>
  </wpt>
  <trk>
    <name><![CDATA[Gorges de la Véroncle au départ de Joucas]]></name>
    <trkseg>
      <trkpt lat="43.92667" lon="5.2507">
        <ele>271</ele>
        <time>2021-05-26T23:01:08+02:00</time>
      </trkpt>
      <trkpt lat="43.92667" lon="5.24937">
        <ele>278</ele>
        <time>2021-05-26T23:01:13+02:00</time>
      </trkpt>
      <trkpt lat="43.92642" lon="5.24862">
        <ele>280</ele>
        <time>2021-05-26T23:01:18+02:00</time>
      </trkpt>
      <trkpt lat="43.92632" lon="5.2484">
        <ele>279</ele>
        <time>2021-05-26T23:01:23+02:00</time>
      </trkpt>
      <trkpt lat="43.92621" lon="5.24794">
        <ele>279</ele>
        <time>2021-05-26T23:01:28+02:00</time>
      </trkpt>
      <trkpt lat="43.92623" lon="5.24721">
        <ele>280</ele>
        <time>2021-05-26T23:01:33+02:00</time>
      </trkpt>
      <trkpt lat="43.92631" lon="5.24655">
        <ele>284</ele>
        <time>2021-05-26T23:01:38+02:00</time>
      </trkpt>
      <trkpt lat="43.92631" lon="5.24616">
        <ele>287</ele>
        <time>2021-05-26T23:01:43+02:00</time>
      </trkpt>
      <trkpt lat="43.92628" lon="5.24576">
        <ele>288</ele>
        <time>2021-05-26T23:01:48+02:00</time>
      </trkpt>
      <trkpt lat="43.92612" lon="5.24565">
        <ele>288</ele>
        <time>2021-05-26T23:01:53+02:00</time>
      </trkpt>
      <trkpt lat="43.92588" lon="5.24521">
        <ele>288</ele>
        <time>2021-05-26T23:01:58+02:00</time>
      </trkpt>
      <trkpt lat="43.92568" lon="5.2445">
        <ele>290</ele>
        <time>2021-05-26T23:02:03+02:00</time>
      </trkpt>
      <trkpt lat="43.92545" lon="5.24387">
        <ele>290</ele>
        <time>2021-05-26T23:02:08+02:00</time>
      </trkpt>
      <trkpt lat="43.92535" lon="5.24353">
        <ele>291</ele>
        <time>2021-05-26T23:02:13+02:00</time>
      </trkpt>
      <trkpt lat="43.92534" lon="5.24341">
        <ele>291</ele>
        <time>2021-05-26T23:02:18+02:00</time>
      </trkpt>
      <trkpt lat="43.92524" lon="5.24321">
        <ele>291</ele>
        <time>2021-05-26T23:02:23+02:00</time>
      </trkpt>
      <trkpt lat="43.9251" lon="5.24261">
        <ele>292</ele>
        <time>2021-05-26T23:02:28+02:00</time>
      </trkpt>
      <trkpt lat="43.92515" lon="5.24187">
        <ele>296</ele>
        <time>2021-05-26T23:02:33+02:00</time>
      </trkpt>
      <trkpt lat="43.92509" lon="5.24174">
        <ele>296</ele>
        <time>2021-05-26T23:02:38+02:00</time>
      </trkpt>
      <trkpt lat="43.92499" lon="5.24164">
        <ele>295</ele>
        <time>2021-05-26T23:02:43+02:00</time>
      </trkpt>
      <trkpt lat="43.92493" lon="5.24144">
        <ele>295</ele>
        <time>2021-05-26T23:02:48+02:00</time>
      </trkpt>
      <trkpt lat="43.92488" lon="5.24127">
        <ele>295</ele>
        <time>2021-05-26T23:02:53+02:00</time>
      </trkpt>
      <trkpt lat="43.92484" lon="5.241">
        <ele>297</ele>
        <time>2021-05-26T23:02:58+02:00</time>
      </trkpt>
      <trkpt lat="43.9248" lon="5.24087">
        <ele>297</ele>
        <time>2021-05-26T23:03:03+02:00</time>
      </trkpt>
      <trkpt lat="43.92477" lon="5.24074">
        <ele>298</ele>
        <time>2021-05-26T23:03:08+02:00</time>
      </trkpt>
      <trkpt lat="43.92478" lon="5.2406">
        <ele>299</ele>
        <time>2021-05-26T23:03:13+02:00</time>
      </trkpt>
      <trkpt lat="43.92474" lon="5.2404">
        <ele>300</ele>
        <time>2021-05-26T23:03:18+02:00</time>
      </trkpt>
      <trkpt lat="43.9247" lon="5.24007">
        <ele>302</ele>
        <time>2021-05-26T23:03:23+02:00</time>
      </trkpt>
      <trkpt lat="43.92476" lon="5.23985">
        <ele>303</ele>
        <time>2021-05-26T23:03:28+02:00</time>
      </trkpt>
      <trkpt lat="43.92473" lon="5.2395">
        <ele>303</ele>
        <time>2021-05-26T23:03:33+02:00</time>
      </trkpt>
      <trkpt lat="43.92469" lon="5.23931">
        <ele>303</ele>
        <time>2021-05-26T23:03:38+02:00</time>
      </trkpt>
      <trkpt lat="43.92467" lon="5.23909">
        <ele>303</ele>
        <time>2021-05-26T23:03:43+02:00</time>
      </trkpt>
      <trkpt lat="43.92475" lon="5.23874">
        <ele>305</ele>
        <time>2021-05-26T23:03:48+02:00</time>
      </trkpt>
      <trkpt lat="43.92484" lon="5.23845">
        <ele>308</ele>
        <time>2021-05-26T23:03:53+02:00</time>
      </trkpt>
      <trkpt lat="43.92485" lon="5.23839">
        <ele>308</ele>
        <time>2021-05-26T23:03:58+02:00</time>
      </trkpt>
      <trkpt lat="43.92483" lon="5.23831">
        <ele>309</ele>
        <time>2021-05-26T23:04:03+02:00</time>
      </trkpt>
      <trkpt lat="43.92485" lon="5.23817">
        <ele>309</ele>
        <time>2021-05-26T23:04:08+02:00</time>
      </trkpt>
      <trkpt lat="43.92484" lon="5.2379">
        <ele>310</ele>
        <time>2021-05-26T23:04:13+02:00</time>
      </trkpt>
      <trkpt lat="43.92476" lon="5.23774">
        <ele>310</ele>
        <time>2021-05-26T23:04:18+02:00</time>
      </trkpt>
      <trkpt lat="43.92475" lon="5.23762">
        <ele>310</ele>
        <time>2021-05-26T23:04:23+02:00</time>
      </trkpt>
      <trkpt lat="43.92484" lon="5.23737">
        <ele>311</ele>
        <time>2021-05-26T23:04:28+02:00</time>
      </trkpt>
      <trkpt lat="43.92491" lon="5.23722">
        <ele>312</ele>
        <time>2021-05-26T23:04:33+02:00</time>
      </trkpt>
      <trkpt lat="43.92482" lon="5.23717">
        <ele>311</ele>
        <time>2021-05-26T23:04:38+02:00</time>
      </trkpt>
      <trkpt lat="43.92462" lon="5.23723">
        <ele>306</ele>
        <time>2021-05-26T23:04:43+02:00</time>
      </trkpt>
      <trkpt lat="43.92449" lon="5.23713">
        <ele>302</ele>
        <time>2021-05-26T23:04:48+02:00</time>
      </trkpt>
      <trkpt lat="43.92447" lon="5.23716">
        <ele>301</ele>
        <time>2021-05-26T23:04:53+02:00</time>
      </trkpt>
      <trkpt lat="43.92441" lon="5.23732">
        <ele>299</ele>
        <time>2021-05-26T23:04:58+02:00</time>
      </trkpt>
      <trkpt lat="43.92433" lon="5.23736">
        <ele>296</ele>
        <time>2021-05-26T23:05:03+02:00</time>
      </trkpt>
      <trkpt lat="43.92425" lon="5.23727">
        <ele>292</ele>
        <time>2021-05-26T23:05:08+02:00</time>
      </trkpt>
      <trkpt lat="43.92416" lon="5.23725">
        <ele>289</ele>
        <time>2021-05-26T23:05:13+02:00</time>
      </trkpt>
      <trkpt lat="43.92409" lon="5.23713">
        <ele>286</ele>
        <time>2021-05-26T23:05:18+02:00</time>
      </trkpt>
      <trkpt lat="43.92407" lon="5.23689">
        <ele>285</ele>
        <time>2021-05-26T23:05:23+02:00</time>
      </trkpt>
      <trkpt lat="43.92403" lon="5.23664">
        <ele>282</ele>
        <time>2021-05-26T23:05:28+02:00</time>
      </trkpt>
      <trkpt lat="43.92394" lon="5.23642">
        <ele>279</ele>
        <time>2021-05-26T23:05:33+02:00</time>
      </trkpt>
      <trkpt lat="43.92385" lon="5.23627">
        <ele>277</ele>
        <time>2021-05-26T23:05:38+02:00</time>
      </trkpt>
      <trkpt lat="43.92351" lon="5.23618">
        <ele>270</ele>
        <time>2021-05-26T23:05:43+02:00</time>
      </trkpt>
      <trkpt lat="43.92333" lon="5.23602">
        <ele>267</ele>
        <time>2021-05-26T23:05:48+02:00</time>
      </trkpt>
      <trkpt lat="43.92318" lon="5.23592">
        <ele>265</ele>
        <time>2021-05-26T23:05:53+02:00</time>
      </trkpt>
      <trkpt lat="43.92303" lon="5.23574">
        <ele>264</ele>
        <time>2021-05-26T23:05:58+02:00</time>
      </trkpt>
      <trkpt lat="43.9229" lon="5.23553">
        <ele>262</ele>
        <time>2021-05-26T23:06:03+02:00</time>
      </trkpt>
      <trkpt lat="43.92272" lon="5.23552">
        <ele>260</ele>
        <time>2021-05-26T23:06:08+02:00</time>
      </trkpt>
      <trkpt lat="43.92235" lon="5.23547">
        <ele>255</ele>
        <time>2021-05-26T23:06:13+02:00</time>
      </trkpt>
      <trkpt lat="43.92231" lon="5.23545">
        <ele>255</ele>
        <time>2021-05-26T23:06:18+02:00</time>
      </trkpt>
      <trkpt lat="43.92221" lon="5.2353">
        <ele>254</ele>
        <time>2021-05-26T23:06:23+02:00</time>
      </trkpt>
      <trkpt lat="43.92213" lon="5.2352">
        <ele>254</ele>
        <time>2021-05-26T23:06:28+02:00</time>
      </trkpt>
      <trkpt lat="43.92177" lon="5.23495">
        <ele>252</ele>
        <time>2021-05-26T23:06:33+02:00</time>
      </trkpt>
      <trkpt lat="43.92152" lon="5.23474">
        <ele>251</ele>
        <time>2021-05-26T23:06:38+02:00</time>
      </trkpt>
      <trkpt lat="43.92143" lon="5.2347">
        <ele>250</ele>
        <time>2021-05-26T23:06:43+02:00</time>
      </trkpt>
      <trkpt lat="43.92122" lon="5.23456">
        <ele>249</ele>
        <time>2021-05-26T23:06:48+02:00</time>
      </trkpt>
      <trkpt lat="43.9209" lon="5.23427">
        <ele>247</ele>
        <time>2021-05-26T23:06:53+02:00</time>
      </trkpt>
      <trkpt lat="43.9208" lon="5.23417">
        <ele>246</ele>
        <time>2021-05-26T23:06:58+02:00</time>
      </trkpt>
      <trkpt lat="43.92076" lon="5.23408">
        <ele>247</ele>
        <time>2021-05-26T23:07:03+02:00</time>
      </trkpt>
      <trkpt lat="43.9207" lon="5.23405">
        <ele>246</ele>
        <time>2021-05-26T23:07:08+02:00</time>
      </trkpt>
      <trkpt lat="43.92066" lon="5.23399">
        <ele>246</ele>
        <time>2021-05-26T23:07:13+02:00</time>
      </trkpt>
      <trkpt lat="43.92063" lon="5.2338">
        <ele>247</ele>
        <time>2021-05-26T23:07:18+02:00</time>
      </trkpt>
      <trkpt lat="43.92025" lon="5.23375">
        <ele>243</ele>
        <time>2021-05-26T23:07:23+02:00</time>
      </trkpt>
      <trkpt lat="43.92012" lon="5.23362">
        <ele>243</ele>
        <time>2021-05-26T23:07:28+02:00</time>
      </trkpt>
      <trkpt lat="43.92001" lon="5.23326">
        <ele>242</ele>
        <time>2021-05-26T23:07:33+02:00</time>
      </trkpt>
      <trkpt lat="43.9198" lon="5.2333">
        <ele>239</ele>
        <time>2021-05-26T23:07:38+02:00</time>
      </trkpt>
      <trkpt lat="43.91963" lon="5.23317">
        <ele>238</ele>
        <time>2021-05-26T23:07:43+02:00</time>
      </trkpt>
      <trkpt lat="43.91931" lon="5.23298">
        <ele>235</ele>
        <time>2021-05-26T23:07:48+02:00</time>
      </trkpt>
      <trkpt lat="43.91869" lon="5.23243">
        <ele>228</ele>
        <time>2021-05-26T23:07:53+02:00</time>
      </trkpt>
      <trkpt lat="43.91827" lon="5.2319">
        <ele>225</ele>
        <time>2021-05-26T23:07:58+02:00</time>
      </trkpt>
      <trkpt lat="43.91815" lon="5.23178">
        <ele>224</ele>
        <time>2021-05-26T23:08:03+02:00</time>
      </trkpt>
      <trkpt lat="43.91794" lon="5.23174">
        <ele>221</ele>
        <time>2021-05-26T23:08:08+02:00</time>
      </trkpt>
      <trkpt lat="43.91786" lon="5.2317">
        <ele>220</ele>
        <time>2021-05-26T23:08:13+02:00</time>
      </trkpt>
      <trkpt lat="43.91781" lon="5.23151">
        <ele>220</ele>
        <time>2021-05-26T23:08:18+02:00</time>
      </trkpt>
      <trkpt lat="43.91769" lon="5.23136">
        <ele>219</ele>
        <time>2021-05-26T23:08:23+02:00</time>
      </trkpt>
      <trkpt lat="43.91757" lon="5.23122">
        <ele>218</ele>
        <time>2021-05-26T23:08:28+02:00</time>
      </trkpt>
      <trkpt lat="43.91739" lon="5.23107">
        <ele>216</ele>
        <time>2021-05-26T23:08:33+02:00</time>
      </trkpt>
      <trkpt lat="43.91722" lon="5.23089">
        <ele>215</ele>
        <time>2021-05-26T23:08:38+02:00</time>
      </trkpt>
      <trkpt lat="43.91684" lon="5.23025">
        <ele>213</ele>
        <time>2021-05-26T23:08:43+02:00</time>
      </trkpt>
      <trkpt lat="43.91665" lon="5.22965">
        <ele>212</ele>
        <time>2021-05-26T23:08:48+02:00</time>
      </trkpt>
      <trkpt lat="43.9166" lon="5.22925">
        <ele>211</ele>
        <time>2021-05-26T23:08:53+02:00</time>
      </trkpt>
      <trkpt lat="43.91657" lon="5.22894">
        <ele>210</ele>
        <time>2021-05-26T23:08:58+02:00</time>
      </trkpt>
      <trkpt lat="43.91601" lon="5.22895">
        <ele>206</ele>
        <time>2021-05-26T23:09:03+02:00</time>
      </trkpt>
      <trkpt lat="43.91573" lon="5.22848">
        <ele>203</ele>
        <time>2021-05-26T23:09:08+02:00</time>
      </trkpt>
      <trkpt lat="43.91597" lon="5.22832">
        <ele>207</ele>
        <time>2021-05-26T23:09:13+02:00</time>
      </trkpt>
      <trkpt lat="43.9163" lon="5.22805">
        <ele>210</ele>
        <time>2021-05-26T23:09:18+02:00</time>
      </trkpt>
      <trkpt lat="43.91645" lon="5.22795">
        <ele>211</ele>
        <time>2021-05-26T23:09:23+02:00</time>
      </trkpt>
      <trkpt lat="43.91682" lon="5.22778">
        <ele>213</ele>
        <time>2021-05-26T23:09:28+02:00</time>
      </trkpt>
      <trkpt lat="43.91687" lon="5.22768">
        <ele>215</ele>
        <time>2021-05-26T23:09:33+02:00</time>
      </trkpt>
      <trkpt lat="43.91691" lon="5.22763">
        <ele>216</ele>
        <time>2021-05-26T23:09:38+02:00</time>
      </trkpt>
      <trkpt lat="43.91695" lon="5.22763">
        <ele>216</ele>
        <time>2021-05-26T23:09:43+02:00</time>
      </trkpt>
      <trkpt lat="43.91739" lon="5.22746">
        <ele>224</ele>
        <time>2021-05-26T23:09:48+02:00</time>
      </trkpt>
      <trkpt lat="43.91761" lon="5.22735">
        <ele>228</ele>
        <time>2021-05-26T23:09:53+02:00</time>
      </trkpt>
      <trkpt lat="43.91769" lon="5.22724">
        <ele>231</ele>
        <time>2021-05-26T23:09:58+02:00</time>
      </trkpt>
      <trkpt lat="43.91838" lon="5.22709">
        <ele>237</ele>
        <time>2021-05-26T23:10:03+02:00</time>
      </trkpt>
      <trkpt lat="43.91879" lon="5.22684">
        <ele>244</ele>
        <time>2021-05-26T23:10:08+02:00</time>
      </trkpt>
      <trkpt lat="43.91888" lon="5.22692">
        <ele>242</ele>
        <time>2021-05-26T23:10:13+02:00</time>
      </trkpt>
      <trkpt lat="43.91905" lon="5.22695">
        <ele>243</ele>
        <time>2021-05-26T23:10:18+02:00</time>
      </trkpt>
      <trkpt lat="43.9192" lon="5.22702">
        <ele>239</ele>
        <time>2021-05-26T23:10:23+02:00</time>
      </trkpt>
      <trkpt lat="43.91926" lon="5.22704">
        <ele>238</ele>
        <time>2021-05-26T23:10:28+02:00</time>
      </trkpt>
      <trkpt lat="43.91925" lon="5.2271">
        <ele>235</ele>
        <time>2021-05-26T23:10:33+02:00</time>
      </trkpt>
      <trkpt lat="43.9188" lon="5.22731">
        <ele>228</ele>
        <time>2021-05-26T23:10:38+02:00</time>
      </trkpt>
      <trkpt lat="43.91874" lon="5.22735">
        <ele>226</ele>
        <time>2021-05-26T23:10:43+02:00</time>
      </trkpt>
      <trkpt lat="43.91889" lon="5.22744">
        <ele>222</ele>
        <time>2021-05-26T23:10:48+02:00</time>
      </trkpt>
      <trkpt lat="43.9191" lon="5.22746">
        <ele>221</ele>
        <time>2021-05-26T23:10:53+02:00</time>
      </trkpt>
      <trkpt lat="43.91939" lon="5.2274">
        <ele>223</ele>
        <time>2021-05-26T23:10:58+02:00</time>
      </trkpt>
      <trkpt lat="43.9195" lon="5.22729">
        <ele>225</ele>
        <time>2021-05-26T23:11:03+02:00</time>
      </trkpt>
      <trkpt lat="43.91963" lon="5.22721">
        <ele>226</ele>
        <time>2021-05-26T23:11:08+02:00</time>
      </trkpt>
      <trkpt lat="43.91962" lon="5.22706">
        <ele>233</ele>
        <time>2021-05-26T23:11:13+02:00</time>
      </trkpt>
      <trkpt lat="43.91967" lon="5.227">
        <ele>236</ele>
        <time>2021-05-26T23:11:18+02:00</time>
      </trkpt>
      <trkpt lat="43.9199" lon="5.22695">
        <ele>234</ele>
        <time>2021-05-26T23:11:23+02:00</time>
      </trkpt>
      <trkpt lat="43.92011" lon="5.22694">
        <ele>233</ele>
        <time>2021-05-26T23:11:28+02:00</time>
      </trkpt>
      <trkpt lat="43.92029" lon="5.22696">
        <ele>234</ele>
        <time>2021-05-26T23:11:33+02:00</time>
      </trkpt>
      <trkpt lat="43.92064" lon="5.22679">
        <ele>244</ele>
        <time>2021-05-26T23:11:38+02:00</time>
      </trkpt>
      <trkpt lat="43.92088" lon="5.22639">
        <ele>247</ele>
        <time>2021-05-26T23:11:43+02:00</time>
      </trkpt>
      <trkpt lat="43.9212" lon="5.22607">
        <ele>253</ele>
        <time>2021-05-26T23:11:48+02:00</time>
      </trkpt>
      <trkpt lat="43.92139" lon="5.22603">
        <ele>249</ele>
        <time>2021-05-26T23:11:53+02:00</time>
      </trkpt>
      <trkpt lat="43.92156" lon="5.22594">
        <ele>253</ele>
        <time>2021-05-26T23:11:58+02:00</time>
      </trkpt>
      <trkpt lat="43.92187" lon="5.22576">
        <ele>254</ele>
        <time>2021-05-26T23:12:03+02:00</time>
      </trkpt>
      <trkpt lat="43.92209" lon="5.22575">
        <ele>257</ele>
        <time>2021-05-26T23:12:08+02:00</time>
      </trkpt>
      <trkpt lat="43.92229" lon="5.2254">
        <ele>264</ele>
        <time>2021-05-26T23:12:13+02:00</time>
      </trkpt>
      <trkpt lat="43.92237" lon="5.2253">
        <ele>267</ele>
        <time>2021-05-26T23:12:18+02:00</time>
      </trkpt>
      <trkpt lat="43.92252" lon="5.22528">
        <ele>262</ele>
        <time>2021-05-26T23:12:23+02:00</time>
      </trkpt>
      <trkpt lat="43.92283" lon="5.22531">
        <ele>265</ele>
        <time>2021-05-26T23:12:28+02:00</time>
      </trkpt>
      <trkpt lat="43.92311" lon="5.22551">
        <ele>262</ele>
        <time>2021-05-26T23:12:33+02:00</time>
      </trkpt>
      <trkpt lat="43.92329" lon="5.22556">
        <ele>262</ele>
        <time>2021-05-26T23:12:38+02:00</time>
      </trkpt>
      <trkpt lat="43.92342" lon="5.22554">
        <ele>266</ele>
        <time>2021-05-26T23:12:43+02:00</time>
      </trkpt>
      <trkpt lat="43.92354" lon="5.22543">
        <ele>269</ele>
        <time>2021-05-26T23:12:48+02:00</time>
      </trkpt>
      <trkpt lat="43.92364" lon="5.22532">
        <ele>268</ele>
        <time>2021-05-26T23:12:53+02:00</time>
      </trkpt>
      <trkpt lat="43.9237" lon="5.22511">
        <ele>274</ele>
        <time>2021-05-26T23:12:58+02:00</time>
      </trkpt>
      <trkpt lat="43.92377" lon="5.22462">
        <ele>274</ele>
        <time>2021-05-26T23:13:03+02:00</time>
      </trkpt>
      <trkpt lat="43.92379" lon="5.22423">
        <ele>275</ele>
        <time>2021-05-26T23:13:08+02:00</time>
      </trkpt>
      <trkpt lat="43.9239" lon="5.22404">
        <ele>271</ele>
        <time>2021-05-26T23:13:13+02:00</time>
      </trkpt>
      <trkpt lat="43.92399" lon="5.22395">
        <ele>274</ele>
        <time>2021-05-26T23:13:18+02:00</time>
      </trkpt>
      <trkpt lat="43.92408" lon="5.22374">
        <ele>275</ele>
        <time>2021-05-26T23:13:23+02:00</time>
      </trkpt>
      <trkpt lat="43.92413" lon="5.22307">
        <ele>279</ele>
        <time>2021-05-26T23:13:28+02:00</time>
      </trkpt>
      <trkpt lat="43.92412" lon="5.22285">
        <ele>286</ele>
        <time>2021-05-26T23:13:33+02:00</time>
      </trkpt>
      <trkpt lat="43.92425" lon="5.22263">
        <ele>287</ele>
        <time>2021-05-26T23:13:38+02:00</time>
      </trkpt>
      <trkpt lat="43.92444" lon="5.22237">
        <ele>288</ele>
        <time>2021-05-26T23:13:43+02:00</time>
      </trkpt>
      <trkpt lat="43.92474" lon="5.22225">
        <ele>293</ele>
        <time>2021-05-26T23:13:48+02:00</time>
      </trkpt>
      <trkpt lat="43.92481" lon="5.2223">
        <ele>293</ele>
        <time>2021-05-26T23:13:53+02:00</time>
      </trkpt>
      <trkpt lat="43.92511" lon="5.22231">
        <ele>294</ele>
        <time>2021-05-26T23:13:58+02:00</time>
      </trkpt>
      <trkpt lat="43.92529" lon="5.22228">
        <ele>295</ele>
        <time>2021-05-26T23:14:03+02:00</time>
      </trkpt>
      <trkpt lat="43.92542" lon="5.22221">
        <ele>300</ele>
        <time>2021-05-26T23:14:08+02:00</time>
      </trkpt>
      <trkpt lat="43.92558" lon="5.22217">
        <ele>305</ele>
        <time>2021-05-26T23:14:13+02:00</time>
      </trkpt>
      <trkpt lat="43.92572" lon="5.22218">
        <ele>308</ele>
        <time>2021-05-26T23:14:18+02:00</time>
      </trkpt>
      <trkpt lat="43.92579" lon="5.22228">
        <ele>305</ele>
        <time>2021-05-26T23:14:23+02:00</time>
      </trkpt>
      <trkpt lat="43.92587" lon="5.22233">
        <ele>305</ele>
        <time>2021-05-26T23:14:28+02:00</time>
      </trkpt>
      <trkpt lat="43.92602" lon="5.22241">
        <ele>303</ele>
        <time>2021-05-26T23:14:33+02:00</time>
      </trkpt>
      <trkpt lat="43.92619" lon="5.22241">
        <ele>304</ele>
        <time>2021-05-26T23:14:38+02:00</time>
      </trkpt>
      <trkpt lat="43.92639" lon="5.22223">
        <ele>304</ele>
        <time>2021-05-26T23:14:43+02:00</time>
      </trkpt>
      <trkpt lat="43.92661" lon="5.22214">
        <ele>304</ele>
        <time>2021-05-26T23:14:48+02:00</time>
      </trkpt>
      <trkpt lat="43.92674" lon="5.22197">
        <ele>305</ele>
        <time>2021-05-26T23:14:53+02:00</time>
      </trkpt>
      <trkpt lat="43.92696" lon="5.22173">
        <ele>302</ele>
        <time>2021-05-26T23:14:58+02:00</time>
      </trkpt>
      <trkpt lat="43.92718" lon="5.2216">
        <ele>305</ele>
        <time>2021-05-26T23:15:03+02:00</time>
      </trkpt>
      <trkpt lat="43.92728" lon="5.2217">
        <ele>304</ele>
        <time>2021-05-26T23:15:08+02:00</time>
      </trkpt>
      <trkpt lat="43.92739" lon="5.22198">
        <ele>308</ele>
        <time>2021-05-26T23:15:13+02:00</time>
      </trkpt>
      <trkpt lat="43.92742" lon="5.22215">
        <ele>308</ele>
        <time>2021-05-26T23:15:18+02:00</time>
      </trkpt>
      <trkpt lat="43.92745" lon="5.22218">
        <ele>306</ele>
        <time>2021-05-26T23:15:23+02:00</time>
      </trkpt>
      <trkpt lat="43.92758" lon="5.22232">
        <ele>307</ele>
        <time>2021-05-26T23:15:28+02:00</time>
      </trkpt>
      <trkpt lat="43.92772" lon="5.22237">
        <ele>308</ele>
        <time>2021-05-26T23:15:33+02:00</time>
      </trkpt>
      <trkpt lat="43.92807" lon="5.22253">
        <ele>305</ele>
        <time>2021-05-26T23:15:38+02:00</time>
      </trkpt>
      <trkpt lat="43.92825" lon="5.2225">
        <ele>305</ele>
        <time>2021-05-26T23:15:43+02:00</time>
      </trkpt>
      <trkpt lat="43.92843" lon="5.22262">
        <ele>307</ele>
        <time>2021-05-26T23:15:48+02:00</time>
      </trkpt>
      <trkpt lat="43.92849" lon="5.22273">
        <ele>306</ele>
        <time>2021-05-26T23:15:53+02:00</time>
      </trkpt>
      <trkpt lat="43.92866" lon="5.2226">
        <ele>310</ele>
        <time>2021-05-26T23:15:58+02:00</time>
      </trkpt>
      <trkpt lat="43.92875" lon="5.22235">
        <ele>323</ele>
        <time>2021-05-26T23:16:03+02:00</time>
      </trkpt>
      <trkpt lat="43.92891" lon="5.22217">
        <ele>327</ele>
        <time>2021-05-26T23:16:08+02:00</time>
      </trkpt>
      <trkpt lat="43.92907" lon="5.22209">
        <ele>320</ele>
        <time>2021-05-26T23:16:13+02:00</time>
      </trkpt>
      <trkpt lat="43.92916" lon="5.2219">
        <ele>317</ele>
        <time>2021-05-26T23:16:18+02:00</time>
      </trkpt>
      <trkpt lat="43.92929" lon="5.22187">
        <ele>318</ele>
        <time>2021-05-26T23:16:23+02:00</time>
      </trkpt>
      <trkpt lat="43.92956" lon="5.22197">
        <ele>320</ele>
        <time>2021-05-26T23:16:28+02:00</time>
      </trkpt>
      <trkpt lat="43.92981" lon="5.22212">
        <ele>323</ele>
        <time>2021-05-26T23:16:33+02:00</time>
      </trkpt>
      <trkpt lat="43.93011" lon="5.22243">
        <ele>326</ele>
        <time>2021-05-26T23:16:38+02:00</time>
      </trkpt>
      <trkpt lat="43.93027" lon="5.22249">
        <ele>324</ele>
        <time>2021-05-26T23:16:43+02:00</time>
      </trkpt>
      <trkpt lat="43.93067" lon="5.22258">
        <ele>333</ele>
        <time>2021-05-26T23:16:48+02:00</time>
      </trkpt>
      <trkpt lat="43.93083" lon="5.22255">
        <ele>332</ele>
        <time>2021-05-26T23:16:53+02:00</time>
      </trkpt>
      <trkpt lat="43.931" lon="5.22247">
        <ele>333</ele>
        <time>2021-05-26T23:16:58+02:00</time>
      </trkpt>
      <trkpt lat="43.93106" lon="5.22239">
        <ele>333</ele>
        <time>2021-05-26T23:17:03+02:00</time>
      </trkpt>
      <trkpt lat="43.93103" lon="5.22215">
        <ele>336</ele>
        <time>2021-05-26T23:17:08+02:00</time>
      </trkpt>
      <trkpt lat="43.93094" lon="5.22176">
        <ele>346</ele>
        <time>2021-05-26T23:17:13+02:00</time>
      </trkpt>
      <trkpt lat="43.93099" lon="5.22124">
        <ele>352</ele>
        <time>2021-05-26T23:17:18+02:00</time>
      </trkpt>
      <trkpt lat="43.931" lon="5.22103">
        <ele>353</ele>
        <time>2021-05-26T23:17:23+02:00</time>
      </trkpt>
      <trkpt lat="43.93104" lon="5.22079">
        <ele>350</ele>
        <time>2021-05-26T23:17:28+02:00</time>
      </trkpt>
      <trkpt lat="43.93116" lon="5.22053">
        <ele>350</ele>
        <time>2021-05-26T23:17:33+02:00</time>
      </trkpt>
      <trkpt lat="43.93135" lon="5.22046">
        <ele>349</ele>
        <time>2021-05-26T23:17:38+02:00</time>
      </trkpt>
      <trkpt lat="43.93146" lon="5.22056">
        <ele>346</ele>
        <time>2021-05-26T23:17:43+02:00</time>
      </trkpt>
      <trkpt lat="43.93159" lon="5.2207">
        <ele>349</ele>
        <time>2021-05-26T23:17:48+02:00</time>
      </trkpt>
      <trkpt lat="43.93182" lon="5.22116">
        <ele>355</ele>
        <time>2021-05-26T23:17:53+02:00</time>
      </trkpt>
      <trkpt lat="43.93195" lon="5.22143">
        <ele>351</ele>
        <time>2021-05-26T23:17:58+02:00</time>
      </trkpt>
      <trkpt lat="43.93212" lon="5.2215">
        <ele>352</ele>
        <time>2021-05-26T23:18:03+02:00</time>
      </trkpt>
      <trkpt lat="43.93224" lon="5.2214">
        <ele>352</ele>
        <time>2021-05-26T23:18:08+02:00</time>
      </trkpt>
      <trkpt lat="43.93247" lon="5.22121">
        <ele>354</ele>
        <time>2021-05-26T23:18:13+02:00</time>
      </trkpt>
      <trkpt lat="43.93271" lon="5.22095">
        <ele>359</ele>
        <time>2021-05-26T23:18:18+02:00</time>
      </trkpt>
      <trkpt lat="43.93293" lon="5.22094">
        <ele>361</ele>
        <time>2021-05-26T23:18:23+02:00</time>
      </trkpt>
      <trkpt lat="43.93311" lon="5.22106">
        <ele>359</ele>
        <time>2021-05-26T23:18:28+02:00</time>
      </trkpt>
      <trkpt lat="43.93329" lon="5.22142">
        <ele>363</ele>
        <time>2021-05-26T23:18:33+02:00</time>
      </trkpt>
      <trkpt lat="43.93357" lon="5.2217">
        <ele>371</ele>
        <time>2021-05-26T23:18:38+02:00</time>
      </trkpt>
      <trkpt lat="43.93369" lon="5.22172">
        <ele>370</ele>
        <time>2021-05-26T23:18:43+02:00</time>
      </trkpt>
      <trkpt lat="43.93406" lon="5.2216">
        <ele>372</ele>
        <time>2021-05-26T23:18:48+02:00</time>
      </trkpt>
      <trkpt lat="43.93423" lon="5.22151">
        <ele>374</ele>
        <time>2021-05-26T23:18:53+02:00</time>
      </trkpt>
      <trkpt lat="43.93433" lon="5.22139">
        <ele>376</ele>
        <time>2021-05-26T23:18:58+02:00</time>
      </trkpt>
      <trkpt lat="43.93438" lon="5.22162">
        <ele>372</ele>
        <time>2021-05-26T23:19:03+02:00</time>
      </trkpt>
      <trkpt lat="43.93446" lon="5.2218">
        <ele>377</ele>
        <time>2021-05-26T23:19:08+02:00</time>
      </trkpt>
      <trkpt lat="43.93442" lon="5.22195">
        <ele>382</ele>
        <time>2021-05-26T23:19:13+02:00</time>
      </trkpt>
      <trkpt lat="43.93438" lon="5.22206">
        <ele>386</ele>
        <time>2021-05-26T23:19:18+02:00</time>
      </trkpt>
      <trkpt lat="43.93439" lon="5.22216">
        <ele>390</ele>
        <time>2021-05-26T23:19:23+02:00</time>
      </trkpt>
      <trkpt lat="43.93448" lon="5.22224">
        <ele>395</ele>
        <time>2021-05-26T23:19:28+02:00</time>
      </trkpt>
      <trkpt lat="43.93464" lon="5.22227">
        <ele>400</ele>
        <time>2021-05-26T23:19:33+02:00</time>
      </trkpt>
      <trkpt lat="43.93443" lon="5.22259">
        <ele>409</ele>
        <time>2021-05-26T23:19:38+02:00</time>
      </trkpt>
      <trkpt lat="43.93424" lon="5.22282">
        <ele>414</ele>
        <time>2021-05-26T23:19:43+02:00</time>
      </trkpt>
      <trkpt lat="43.93401" lon="5.223">
        <ele>421</ele>
        <time>2021-05-26T23:19:48+02:00</time>
      </trkpt>
      <trkpt lat="43.9337" lon="5.22306">
        <ele>426</ele>
        <time>2021-05-26T23:19:53+02:00</time>
      </trkpt>
      <trkpt lat="43.93346" lon="5.22311">
        <ele>433</ele>
        <time>2021-05-26T23:19:58+02:00</time>
      </trkpt>
      <trkpt lat="43.9334" lon="5.22312">
        <ele>434</ele>
        <time>2021-05-26T23:20:03+02:00</time>
      </trkpt>
      <trkpt lat="43.93357" lon="5.22338">
        <ele>439</ele>
        <time>2021-05-26T23:20:08+02:00</time>
      </trkpt>
      <trkpt lat="43.93387" lon="5.22357">
        <ele>445</ele>
        <time>2021-05-26T23:20:13+02:00</time>
      </trkpt>
      <trkpt lat="43.93427" lon="5.22371">
        <ele>454</ele>
        <time>2021-05-26T23:20:18+02:00</time>
      </trkpt>
      <trkpt lat="43.93439" lon="5.22377">
        <ele>458</ele>
        <time>2021-05-26T23:20:23+02:00</time>
      </trkpt>
      <trkpt lat="43.93452" lon="5.2237">
        <ele>458</ele>
        <time>2021-05-26T23:20:28+02:00</time>
      </trkpt>
      <trkpt lat="43.93468" lon="5.22381">
        <ele>463</ele>
        <time>2021-05-26T23:20:33+02:00</time>
      </trkpt>
      <trkpt lat="43.93488" lon="5.22383">
        <ele>466</ele>
        <time>2021-05-26T23:20:38+02:00</time>
      </trkpt>
      <trkpt lat="43.9351" lon="5.2238">
        <ele>467</ele>
        <time>2021-05-26T23:20:43+02:00</time>
      </trkpt>
      <trkpt lat="43.93531" lon="5.22386">
        <ele>469</ele>
        <time>2021-05-26T23:20:48+02:00</time>
      </trkpt>
      <trkpt lat="43.93539" lon="5.22388">
        <ele>469</ele>
        <time>2021-05-26T23:20:53+02:00</time>
      </trkpt>
      <trkpt lat="43.93539" lon="5.22412">
        <ele>470</ele>
        <time>2021-05-26T23:20:58+02:00</time>
      </trkpt>
      <trkpt lat="43.93554" lon="5.22447">
        <ele>471</ele>
        <time>2021-05-26T23:21:03+02:00</time>
      </trkpt>
      <trkpt lat="43.93562" lon="5.22464">
        <ele>472</ele>
        <time>2021-05-26T23:21:08+02:00</time>
      </trkpt>
      <trkpt lat="43.93566" lon="5.22482">
        <ele>473</ele>
        <time>2021-05-26T23:21:13+02:00</time>
      </trkpt>
      <trkpt lat="43.93574" lon="5.22508">
        <ele>473</ele>
        <time>2021-05-26T23:21:18+02:00</time>
      </trkpt>
      <trkpt lat="43.93591" lon="5.22532">
        <ele>474</ele>
        <time>2021-05-26T23:21:23+02:00</time>
      </trkpt>
      <trkpt lat="43.93622" lon="5.22586">
        <ele>474</ele>
        <time>2021-05-26T23:21:28+02:00</time>
      </trkpt>
      <trkpt lat="43.93606" lon="5.22604">
        <ele>473</ele>
        <time>2021-05-26T23:21:33+02:00</time>
      </trkpt>
      <trkpt lat="43.93596" lon="5.22629">
        <ele>471</ele>
        <time>2021-05-26T23:21:38+02:00</time>
      </trkpt>
      <trkpt lat="43.93591" lon="5.22657">
        <ele>469</ele>
        <time>2021-05-26T23:21:43+02:00</time>
      </trkpt>
      <trkpt lat="43.93581" lon="5.22698">
        <ele>467</ele>
        <time>2021-05-26T23:21:48+02:00</time>
      </trkpt>
      <trkpt lat="43.93568" lon="5.22742">
        <ele>463</ele>
        <time>2021-05-26T23:21:53+02:00</time>
      </trkpt>
      <trkpt lat="43.93558" lon="5.22753">
        <ele>462</ele>
        <time>2021-05-26T23:21:58+02:00</time>
      </trkpt>
      <trkpt lat="43.93459" lon="5.22797">
        <ele>452</ele>
        <time>2021-05-26T23:22:03+02:00</time>
      </trkpt>
      <trkpt lat="43.93445" lon="5.22801">
        <ele>451</ele>
        <time>2021-05-26T23:22:08+02:00</time>
      </trkpt>
      <trkpt lat="43.93426" lon="5.22813">
        <ele>450</ele>
        <time>2021-05-26T23:22:13+02:00</time>
      </trkpt>
      <trkpt lat="43.93379" lon="5.22864">
        <ele>444</ele>
        <time>2021-05-26T23:22:18+02:00</time>
      </trkpt>
      <trkpt lat="43.93326" lon="5.22938">
        <ele>436</ele>
        <time>2021-05-26T23:22:23+02:00</time>
      </trkpt>
      <trkpt lat="43.93307" lon="5.22953">
        <ele>434</ele>
        <time>2021-05-26T23:22:28+02:00</time>
      </trkpt>
      <trkpt lat="43.93304" lon="5.22996">
        <ele>430</ele>
        <time>2021-05-26T23:22:33+02:00</time>
      </trkpt>
      <trkpt lat="43.93266" lon="5.23008">
        <ele>426</ele>
        <time>2021-05-26T23:22:38+02:00</time>
      </trkpt>
      <trkpt lat="43.93242" lon="5.23005">
        <ele>423</ele>
        <time>2021-05-26T23:22:43+02:00</time>
      </trkpt>
      <trkpt lat="43.93221" lon="5.23008">
        <ele>422</ele>
        <time>2021-05-26T23:22:48+02:00</time>
      </trkpt>
      <trkpt lat="43.93192" lon="5.23022">
        <ele>418</ele>
        <time>2021-05-26T23:22:53+02:00</time>
      </trkpt>
      <trkpt lat="43.93163" lon="5.23035">
        <ele>415</ele>
        <time>2021-05-26T23:22:58+02:00</time>
      </trkpt>
      <trkpt lat="43.93128" lon="5.23054">
        <ele>410</ele>
        <time>2021-05-26T23:23:03+02:00</time>
      </trkpt>
      <trkpt lat="43.93151" lon="5.23166">
        <ele>402</ele>
        <time>2021-05-26T23:23:08+02:00</time>
      </trkpt>
      <trkpt lat="43.93153" lon="5.23173">
        <ele>402</ele>
        <time>2021-05-26T23:23:13+02:00</time>
      </trkpt>
      <trkpt lat="43.93144" lon="5.232">
        <ele>399</ele>
        <time>2021-05-26T23:23:18+02:00</time>
      </trkpt>
      <trkpt lat="43.9314" lon="5.2322">
        <ele>397</ele>
        <time>2021-05-26T23:23:23+02:00</time>
      </trkpt>
      <trkpt lat="43.93142" lon="5.2324">
        <ele>395</ele>
        <time>2021-05-26T23:23:28+02:00</time>
      </trkpt>
      <trkpt lat="43.93149" lon="5.23266">
        <ele>394</ele>
        <time>2021-05-26T23:23:33+02:00</time>
      </trkpt>
      <trkpt lat="43.93136" lon="5.23286">
        <ele>391</ele>
        <time>2021-05-26T23:23:38+02:00</time>
      </trkpt>
      <trkpt lat="43.93109" lon="5.2331">
        <ele>387</ele>
        <time>2021-05-26T23:23:43+02:00</time>
      </trkpt>
      <trkpt lat="43.93089" lon="5.23339">
        <ele>382</ele>
        <time>2021-05-26T23:23:48+02:00</time>
      </trkpt>
      <trkpt lat="43.93066" lon="5.23376">
        <ele>378</ele>
        <time>2021-05-26T23:23:53+02:00</time>
      </trkpt>
      <trkpt lat="43.93041" lon="5.23422">
        <ele>372</ele>
        <time>2021-05-26T23:23:58+02:00</time>
      </trkpt>
      <trkpt lat="43.93034" lon="5.23437">
        <ele>370</ele>
        <time>2021-05-26T23:24:03+02:00</time>
      </trkpt>
      <trkpt lat="43.93008" lon="5.23463">
        <ele>367</ele>
        <time>2021-05-26T23:24:08+02:00</time>
      </trkpt>
      <trkpt lat="43.92946" lon="5.23504">
        <ele>360</ele>
        <time>2021-05-26T23:24:13+02:00</time>
      </trkpt>
      <trkpt lat="43.92915" lon="5.23532">
        <ele>356</ele>
        <time>2021-05-26T23:24:18+02:00</time>
      </trkpt>
      <trkpt lat="43.92899" lon="5.23551">
        <ele>353</ele>
        <time>2021-05-26T23:24:23+02:00</time>
      </trkpt>
      <trkpt lat="43.9284" lon="5.23607">
        <ele>345</ele>
        <time>2021-05-26T23:24:28+02:00</time>
      </trkpt>
      <trkpt lat="43.92825" lon="5.2364">
        <ele>341</ele>
        <time>2021-05-26T23:24:33+02:00</time>
      </trkpt>
      <trkpt lat="43.92804" lon="5.23667">
        <ele>339</ele>
        <time>2021-05-26T23:24:38+02:00</time>
      </trkpt>
      <trkpt lat="43.92779" lon="5.23694">
        <ele>336</ele>
        <time>2021-05-26T23:24:43+02:00</time>
      </trkpt>
      <trkpt lat="43.92763" lon="5.23714">
        <ele>334</ele>
        <time>2021-05-26T23:24:48+02:00</time>
      </trkpt>
      <trkpt lat="43.92761" lon="5.23729">
        <ele>333</ele>
        <time>2021-05-26T23:24:53+02:00</time>
      </trkpt>
      <trkpt lat="43.9276" lon="5.23749">
        <ele>332</ele>
        <time>2021-05-26T23:24:58+02:00</time>
      </trkpt>
      <trkpt lat="43.92763" lon="5.2378">
        <ele>331</ele>
        <time>2021-05-26T23:25:03+02:00</time>
      </trkpt>
      <trkpt lat="43.92767" lon="5.23806">
        <ele>330</ele>
        <time>2021-05-26T23:25:08+02:00</time>
      </trkpt>
      <trkpt lat="43.92765" lon="5.23831">
        <ele>328</ele>
        <time>2021-05-26T23:25:13+02:00</time>
      </trkpt>
      <trkpt lat="43.92763" lon="5.23852">
        <ele>327</ele>
        <time>2021-05-26T23:25:18+02:00</time>
      </trkpt>
      <trkpt lat="43.92758" lon="5.23871">
        <ele>326</ele>
        <time>2021-05-26T23:25:23+02:00</time>
      </trkpt>
      <trkpt lat="43.92741" lon="5.23897">
        <ele>324</ele>
        <time>2021-05-26T23:25:28+02:00</time>
      </trkpt>
      <trkpt lat="43.92731" lon="5.2392">
        <ele>322</ele>
        <time>2021-05-26T23:25:33+02:00</time>
      </trkpt>
      <trkpt lat="43.92719" lon="5.23979">
        <ele>319</ele>
        <time>2021-05-26T23:25:38+02:00</time>
      </trkpt>
      <trkpt lat="43.92715" lon="5.24005">
        <ele>318</ele>
        <time>2021-05-26T23:25:43+02:00</time>
      </trkpt>
      <trkpt lat="43.92713" lon="5.24029">
        <ele>317</ele>
        <time>2021-05-26T23:25:48+02:00</time>
      </trkpt>
      <trkpt lat="43.92715" lon="5.24056">
        <ele>316</ele>
        <time>2021-05-26T23:25:53+02:00</time>
      </trkpt>
      <trkpt lat="43.92704" lon="5.24071">
        <ele>314</ele>
        <time>2021-05-26T23:25:58+02:00</time>
      </trkpt>
      <trkpt lat="43.92688" lon="5.24101">
        <ele>311</ele>
        <time>2021-05-26T23:26:03+02:00</time>
      </trkpt>
      <trkpt lat="43.92683" lon="5.24123">
        <ele>310</ele>
        <time>2021-05-26T23:26:08+02:00</time>
      </trkpt>
      <trkpt lat="43.92688" lon="5.24153">
        <ele>309</ele>
        <time>2021-05-26T23:26:13+02:00</time>
      </trkpt>
      <trkpt lat="43.92675" lon="5.24208">
        <ele>305</ele>
        <time>2021-05-26T23:26:18+02:00</time>
      </trkpt>
      <trkpt lat="43.92668" lon="5.24258">
        <ele>303</ele>
        <time>2021-05-26T23:26:23+02:00</time>
      </trkpt>
      <trkpt lat="43.92676" lon="5.2431">
        <ele>301</ele>
        <time>2021-05-26T23:26:28+02:00</time>
      </trkpt>
      <trkpt lat="43.92665" lon="5.2435">
        <ele>299</ele>
        <time>2021-05-26T23:26:33+02:00</time>
      </trkpt>
      <trkpt lat="43.92641" lon="5.24414">
        <ele>295</ele>
        <time>2021-05-26T23:26:38+02:00</time>
      </trkpt>
      <trkpt lat="43.92636" lon="5.24438">
        <ele>294</ele>
        <time>2021-05-26T23:26:43+02:00</time>
      </trkpt>
      <trkpt lat="43.92639" lon="5.24469">
        <ele>292</ele>
        <time>2021-05-26T23:26:48+02:00</time>
      </trkpt>
      <trkpt lat="43.92639" lon="5.24483">
        <ele>292</ele>
        <time>2021-05-26T23:26:53+02:00</time>
      </trkpt>
      <trkpt lat="43.92632" lon="5.24509">
        <ele>290</ele>
        <time>2021-05-26T23:26:58+02:00</time>
      </trkpt>
      <trkpt lat="43.92629" lon="5.24538">
        <ele>289</ele>
        <time>2021-05-26T23:27:03+02:00</time>
      </trkpt>
      <trkpt lat="43.92632" lon="5.24547">
        <ele>290</ele>
        <time>2021-05-26T23:27:08+02:00</time>
      </trkpt>
      <trkpt lat="43.92628" lon="5.24568">
        <ele>289</ele>
        <time>2021-05-26T23:27:13+02:00</time>
      </trkpt>
      <trkpt lat="43.92628" lon="5.24585">
        <ele>288</ele>
        <time>2021-05-26T23:27:18+02:00</time>
      </trkpt>
      <trkpt lat="43.92631" lon="5.24601">
        <ele>288</ele>
        <time>2021-05-26T23:27:23+02:00</time>
      </trkpt>
      <trkpt lat="43.92631" lon="5.24655">
        <ele>284</ele>
        <time>2021-05-26T23:27:28+02:00</time>
      </trkpt>
      <trkpt lat="43.92624" lon="5.24721">
        <ele>280</ele>
        <time>2021-05-26T23:27:33+02:00</time>
      </trkpt>
      <trkpt lat="43.92621" lon="5.24793">
        <ele>279</ele>
        <time>2021-05-26T23:27:38+02:00</time>
      </trkpt>
      <trkpt lat="43.92633" lon="5.2484">
        <ele>279</ele>
        <time>2021-05-26T23:27:43+02:00</time>
      </trkpt>
      <trkpt lat="43.92649" lon="5.24885">
        <ele>279</ele>
        <time>2021-05-26T23:27:48+02:00</time>
      </trkpt>
      <trkpt lat="43.92658" lon="5.24912">
        <ele>278</ele>
        <time>2021-05-26T23:27:53+02:00</time>
      </trkpt>
      <trkpt lat="43.92666" lon="5.24941">
        <ele>278</ele>
        <time>2021-05-26T23:27:58+02:00</time>
      </trkpt>
      <trkpt lat="43.92668" lon="5.24981">
        <ele>276</ele>
        <time>2021-05-26T23:28:03+02:00</time>
      </trkpt>
      <trkpt lat="43.92668" lon="5.25003">
        <ele>274</ele>
        <time>2021-05-26T23:28:08+02:00</time>
      </trkpt>
      <trkpt lat="43.92666" lon="5.25015">
        <ele>273</ele>
        <time>2021-05-26T23:28:13+02:00</time>
      </trkpt>
      <trkpt lat="43.92666" lon="5.25032">
        <ele>273</ele>
        <time>2021-05-26T23:28:18+02:00</time>
      </trkpt>
      <trkpt lat="43.92665" lon="5.25039">
        <ele>272</ele>
        <time>2021-05-26T23:28:23+02:00</time>
      </trkpt>
      <trkpt lat="43.92667" lon="5.2507">
        <ele>271</ele>
        <time>2021-05-26T23:28:28+02:00</time>
      </trkpt>
    </trkseg>
  </trk>
</gpx>